Time;durP1;ratioP1;P1;durP2;ratioP2;P2;SDS_P1;SDS_P2;PMS_P1;PMS_P2;Temp;Humidity;BMP_temperature;BMP_pressure;BME280_temperature;BME280_humidity;BME280_pressure;Samples;Min_cycle;Max_cycle;Signal;HPM_P1;HPM_P2
2021/08/10 00:03:15;;;;;;;3.75;1.90;;;;;;;;;;8323021;28;20398;-72
2021/08/10 00:07:22;;;;;;;3.00;1.90;;;;;;;;;;8325725;28;20338;-72
2021/08/10 00:11:27;;;;;;;3.90;1.83;;;;;;;;;;8324864;28;20356;-72
2021/08/10 00:15:32;;;;;;;4.63;1.58;;;;;;;;;;8328452;28;20366;-72
2021/08/10 00:19:37;;;;;;;4.43;2.08;;;;;;;;;;8324933;28;20485;-73
2021/08/10 00:23:41;;;;;;;3.10;1.85;;;;;;;;;;8326048;28;20058;-71
2021/08/10 00:27:46;;;;;;;10.00;2.00;;;;;;;;;;8327320;28;20483;-71
2021/08/10 00:31:51;;;;;;;5.78;1.75;;;;;;;;;;8326416;28;20417;-73
2021/08/10 00:35:58;;;;;;;4.68;1.60;;;;;;;;;;8309076;28;20097;-73
2021/08/10 00:40:04;;;;;;;3.25;2.00;;;;;;;;;;8325631;28;20507;-71
2021/08/10 00:44:10;;;;;;;7.47;2.38;;;;;;;;;;8324492;28;20066;-71
2021/08/10 00:48:20;;;;;;;6.47;2.30;;;;;;;;;;8308598;28;20379;-72
2021/08/10 00:52:27;;;;;;;6.35;2.17;;;;;;;;;;8323743;28;20407;-71
2021/08/10 00:56:33;;;;;;;4.00;2.03;;;;;;;;;;8322855;28;20454;-72
2021/08/10 01:00:38;;;;;;;5.07;2.20;;;;;;;;;;8324332;28;20036;-72
2021/08/10 01:04:44;;;;;;;4.20;2.40;;;;;;;;;;8323171;28;20521;-73
2021/08/10 01:08:58;;;;;;;8.60;2.25;;;;;;;;;;8322862;28;20496;-72
2021/08/10 01:13:25;;;;;;;5.72;2.70;;;;;;;;;;8323624;28;20439;-71
2021/08/10 01:18:14;;;;;;;6.78;2.42;;;;;;;;;;8323490;28;20393;-71
2021/08/10 01:22:27;;;;;;;3.88;2.08;;;;;;;;;;8322273;28;20371;-73
2021/08/10 01:27:10;;;;;;;7.55;2.10;;;;;;;;;;8322195;28;20371;-72
2021/08/10 01:31:24;;;;;;;5.95;1.75;;;;;;;;;;8307181;28;20344;-72
2021/08/10 01:35:35;;;;;;;4.72;1.98;;;;;;;;;;8308227;28;20447;-72
2021/08/10 01:39:43;;;;;;;4.40;1.70;;;;;;;;;;8323831;28;20375;-72
2021/08/10 01:43:49;;;;;;;6.15;2.63;;;;;;;;;;8304862;28;20382;-72
2021/08/10 01:47:57;;;;;;;4.10;1.60;;;;;;;;;;8306828;28;20048;-72
2021/08/10 01:52:06;;;;;;;4.18;1.60;;;;;;;;;;8307888;28;20359;-72
2021/08/10 01:56:12;;;;;;;5.55;2.05;;;;;;;;;;8322547;28;20070;-72
2021/08/10 02:00:21;;;;;;;5.07;1.50;;;;;;;;;;8306540;28;20482;-72
2021/08/10 02:04:33;;;;;;;6.05;2.30;;;;;;;;;;8323779;28;20051;-71
2021/08/10 02:08:39;;;;;;;5.00;1.73;;;;;;;;;;8305793;28;20360;-72
2021/08/10 02:12:45;;;;;;;5.07;1.70;;;;;;;;;;8305537;28;20478;-71
2021/08/10 02:16:57;;;;;;;2.72;1.60;;;;;;;;;;8338991;28;20459;-71
2021/08/10 02:21:08;;;;;;;6.55;2.28;;;;;;;;;;8306675;28;20505;-72
2021/08/10 02:25:14;;;;;;;;;;;;;;;;;;8306006;28;20459;-71
2021/08/10 02:29:31;;;;;;;9.52;2.05;;;;;;;;;;8323541;28;20366;-71
2021/08/10 02:33:37;;;;;;;9.55;1.80;;;;;;;;;;8321512;28;20048;-71
2021/08/10 02:37:49;;;;;;;3.92;1.85;;;;;;;;;;8306117;28;20383;-72
2021/08/10 02:41:56;;;;;;;5.93;2.10;;;;;;;;;;8336789;28;20356;-71
2021/08/10 02:46:01;;;;;;;4.97;1.90;;;;;;;;;;8304535;28;20383;-71
2021/08/10 02:50:07;;;;;;;7.57;2.00;;;;;;;;;;8321480;28;20320;-72
2021/08/10 02:54:12;;;;;;;2.40;1.45;;;;;;;;;;8320457;28;20463;-71
2021/08/10 02:58:23;;;;;;;6.05;2.13;;;;;;;;;;8287795;28;20489;-71
2021/08/10 03:02:38;;;;;;;5.70;2.20;;;;;;;;;;8307540;28;20466;-72
2021/08/10 03:06:44;;;;;;;4.65;2.17;;;;;;;;;;8304450;28;20485;-71
2021/08/10 03:10:52;;;;;;;7.47;1.90;;;;;;;;;;8321019;28;20356;-72
2021/08/10 03:15:00;;;;;;;6.35;2.00;;;;;;;;;;8322226;28;20340;-72
2021/08/10 03:19:06;;;;;;;3.60;1.88;;;;;;;;;;8305578;28;20473;-71
2021/08/10 03:23:19;;;;;;;4.78;1.67;;;;;;;;;;8304158;28;20473;-72
2021/08/10 03:27:25;;;;;;;3.03;1.90;;;;;;;;;;8321293;28;20588;-71
2021/08/10 03:31:29;;;;;;;3.97;1.95;;;;;;;;;;8320964;28;20497;-71
2021/08/10 03:35:33;;;;;;;5.22;2.03;;;;;;;;;;8342316;28;20462;-71
2021/08/10 03:39:42;;;;;;;3.65;2.42;;;;;;;;;;8310103;28;20363;-71
2021/08/10 03:43:48;;;;;;;2.78;1.80;;;;;;;;;;8310438;28;20430;-71
2021/08/10 03:47:53;;;;;;;3.60;1.92;;;;;;;;;;8326377;28;20044;-71
2021/08/10 03:51:58;;;;;;;3.25;1.92;;;;;;;;;;8310490;28;20339;-71
2021/08/10 03:56:04;;;;;;;5.45;2.15;;;;;;;;;;8326691;28;20336;-72
2021/08/10 04:00:18;;;;;;;2.80;1.98;;;;;;;;;;8310170;28;20347;-71
2021/08/10 04:04:34;;;;;;;3.05;2.05;;;;;;;;;;8311226;28;20062;-71
2021/08/10 04:08:41;;;;;;;7.45;2.22;;;;;;;;;;8325865;28;20346;-71
2021/08/10 04:12:46;;;;;;;5.55;2.35;;;;;;;;;;8309981;28;20463;-71
2021/08/10 04:16:55;;;;;;;4.65;1.98;;;;;;;;;;8310368;28;20047;-71
2021/08/10 04:21:00;;;;;;;3.95;2.13;;;;;;;;;;8326584;28;20447;-71
2021/08/10 04:25:05;;;;;;;6.47;1.85;;;;;;;;;;8324503;28;20480;-71
2021/08/10 04:29:09;;;;;;;2.75;2.00;;;;;;;;;;8308679;28;20439;-71
2021/08/10 04:33:14;;;;;;;12.23;2.33;;;;;;;;;;8325160;28;20052;-71
2021/08/10 04:37:18;;;;;;;5.15;1.80;;;;;;;;;;8324330;28;20088;-71
2021/08/10 04:41:26;;;;;;;5.00;2.10;;;;;;;;;;8308585;28;20397;-72
2021/08/10 04:45:35;;;;;;;2.67;1.80;;;;;;;;;;8323742;28;20451;-71
2021/08/10 04:49:40;;;;;;;5.93;1.90;;;;;;;;;;8341410;28;20325;-71
2021/08/10 04:53:47;;;;;;;4.25;1.85;;;;;;;;;;8323153;28;20359;-71
2021/08/10 04:57:52;;;;;;;5.43;2.30;;;;;;;;;;8309639;28;20374;-71
2021/08/10 05:01:59;;;;;;;3.50;1.70;;;;;;;;;;8340470;28;20374;-71
2021/08/10 05:06:05;;;;;;;5.70;1.80;;;;;;;;;;8326657;28;20750;-71
2021/08/10 05:10:11;;;;;;;5.47;2.90;;;;;;;;;;8324513;28;20474;-72
2021/08/10 05:14:19;;;;;;;5.40;2.60;;;;;;;;;;8323461;28;20363;-71
2021/08/10 05:18:22;;;;;;;7.15;3.00;;;;;;;;;;8324817;28;20401;-71
2021/08/10 05:22:26;;;;;;;7.78;3.35;;;;;;;;;;8323342;28;20485;-71
2021/08/10 05:26:34;;;;;;;6.35;2.80;;;;;;;;;;8307215;28;20075;-72
2021/08/10 05:30:39;;;;;;;5.93;2.35;;;;;;;;;;8323891;28;20465;-72
2021/08/10 05:34:46;;;;;;;4.22;2.40;;;;;;;;;;8339383;28;20040;-73
2021/08/10 05:38:53;;;;;;;3.38;2.17;;;;;;;;;;8322615;28;20361;-73
2021/08/10 05:42:58;;;;;;;4.07;2.38;;;;;;;;;;8323927;28;20506;-71
2021/08/10 05:47:04;;;;;;;3.60;1.80;;;;;;;;;;8338333;28;20478;-71
2021/08/10 05:51:09;;;;;;;5.32;2.30;;;;;;;;;;8323760;28;20459;-71
2021/08/10 05:55:15;;;;;;;3.25;1.58;;;;;;;;;;8305713;28;20044;-72
2021/08/10 05:59:24;;;;;;;3.17;1.75;;;;;;;;;;8322947;28;20370;-71
2021/08/10 06:03:31;;;;;;;;;;;;;;;;;;8323037;28;20367;-72
2021/08/10 06:07:37;;;;;;;2.25;1.40;;;;;;;;;;8305598;28;20339;-71
2021/08/10 06:11:43;;;;;;;7.95;1.70;;;;;;;;;;8289145;28;20052;-71
2021/08/10 06:15:49;;;;;;;4.75;2.17;;;;;;;;;;8305460;28;20470;-72
2021/08/10 06:19:54;;;;;;;14.48;6.88;;;;;;;;;;8322365;28;20048;-71
2021/08/10 06:24:00;;;;;;;22.52;12.27;;;;;;;;;;8321743;28;20504;-71
2021/08/10 06:28:06;;;;;;;12.50;5.00;;;;;;;;;;8321945;28;20471;-71
2021/08/10 06:32:13;;;;;;;12.00;4.25;;;;;;;;;;8321431;28;20796;-71
2021/08/10 06:36:19;;;;;;;9.93;3.80;;;;;;;;;;8321974;28;20497;-72
2021/08/10 06:40:24;;;;;;;7.47;3.22;;;;;;;;;;8322127;28;21099;-72
2021/08/10 06:44:30;;;;;;;6.30;2.42;;;;;;;;;;8323198;28;20071;-72
2021/08/10 06:48:38;;;;;;;7.55;2.60;;;;;;;;;;8323632;28;20489;-71
2021/08/10 06:52:44;;;;;;;5.50;2.63;;;;;;;;;;8321835;28;20384;-73
2021/08/10 06:56:53;;;;;;;3.33;1.67;;;;;;;;;;8306128;28;20344;-72
2021/08/10 07:01:00;;;;;;;5.47;1.67;;;;;;;;;;8323272;28;20505;-72
2021/08/10 07:05:14;;;;;;;5.22;1.85;;;;;;;;;;8324953;28;20479;-71
2021/08/10 07:09:22;;;;;;;5.03;1.60;;;;;;;;;;8329619;28;20463;-72
2021/08/10 07:13:27;;;;;;;6.28;1.88;;;;;;;;;;8050849;28;20356;-73
2021/08/10 07:18:40;;;;;;;7.25;2.17;;;;;;;;;;8062074;27;1991057;-70
2021/08/10 07:22:53;;;;;;;3.65;1.98;;;;;;;;;;8250376;28;20521;-71
2021/08/10 07:26:59;;;;;;;6.70;1.80;;;;;;;;;;8301744;28;20057;-71
2021/08/10 07:31:08;;;;;;;4.63;1.83;;;;;;;;;;8302152;28;20456;-72
2021/08/10 07:35:13;;;;;;;7.75;2.17;;;;;;;;;;8299883;28;20464;-71
2021/08/10 07:39:17;;;;;;;8.15;2.42;;;;;;;;;;8226930;28;20399;-71
2021/08/10 07:43:24;;;;;;;4.95;2.28;;;;;;;;;;8257668;28;20372;-71
2021/08/10 07:47:30;;;;;;;7.57;2.22;;;;;;;;;;8300350;28;20106;-71
2021/08/10 07:51:36;;;;;;;5.05;1.90;;;;;;;;;;8285345;28;20049;-71
2021/08/10 07:55:41;;;;;;;5.03;2.17;;;;;;;;;;8282015;28;20383;-71
2021/08/10 07:59:46;;;;;;;6.55;1.80;;;;;;;;;;8284284;28;20451;-72
2021/08/10 08:03:57;;;;;;;4.53;1.60;;;;;;;;;;8298744;28;20490;-71
2021/08/10 08:08:02;;;;;;;2.30;1.20;;;;;;;;;;8285516;28;20370;-70
2021/08/10 08:12:07;;;;;;;3.15;1.60;;;;;;;;;;8300885;28;20060;-71
2021/08/10 08:16:13;;;;;;;2.63;1.00;;;;;;;;;;8294811;28;20483;-73
2021/08/10 08:20:20;;;;;;;;;;;;;;;;;;8320086;28;20371;-72
2021/08/10 08:24:26;;;;;;;;;;;;;;;;;;8299104;28;20334;-70
2021/08/10 08:28:32;;;;;;;2.38;1.40;;;;;;;;;;8321294;28;20354;-71
2021/08/10 08:32:37;;;;;;;1.30;1.00;;;;;;;;;;8293109;28;20052;-71
2021/08/10 08:36:44;;;;;;;3.08;0.90;;;;;;;;;;8294264;28;20060;-72
2021/08/10 08:40:49;;;;;;;2.55;1.27;;;;;;;;;;8276898;28;20409;-72
2021/08/10 08:44:55;;;;;;;2.17;0.90;;;;;;;;;;8293458;28;20455;-72
2021/08/10 08:49:02;;;;;;;1.40;1.00;;;;;;;;;;8294817;28;20777;-71
2021/08/10 08:53:14;;;;;;;1.90;1.05;;;;;;;;;;8276102;28;20052;-71
2021/08/10 08:57:22;;;;;;;2.40;1.15;;;;;;;;;;8293374;28;20356;-71
2021/08/10 09:01:28;;;;;;;5.85;1.15;;;;;;;;;;8275872;28;20379;-71
2021/08/10 09:05:37;;;;;;;2.00;1.10;;;;;;;;;;8293080;28;20346;-71
2021/08/10 09:09:45;;;;;;;7.82;0.95;;;;;;;;;;8274909;28;20367;-71
2021/08/10 09:14:03;;;;;;;1.40;0.95;;;;;;;;;;8290488;28;20467;-71
2021/08/10 09:18:23;;;;;;;2.67;0.93;;;;;;;;;;8274754;28;20053;-71
2021/08/10 09:22:38;;;;;;;1.45;0.90;;;;;;;;;;8260374;28;20057;-71
2021/08/10 09:27:00;;;;;;;1.05;0.85;;;;;;;;;;8261140;28;20045;-71
2021/08/10 09:31:36;;;;;;;6.28;0.80;;;;;;;;;;8274186;28;20486;-71
2021/08/10 09:35:44;;;;;;;0.82;0.70;;;;;;;;;;8258166;28;20403;-72
2021/08/10 09:39:54;;;;;;;4.22;0.85;;;;;;;;;;8274054;28;20359;-71
2021/08/10 09:44:17;;;;;;;1.25;0.82;;;;;;;;;;8274334;28;20063;-72
2021/08/10 09:48:22;;;;;;;2.63;0.90;;;;;;;;;;8260289;28;20460;-71
2021/08/10 09:52:33;;;;;;;3.60;0.85;;;;;;;;;;8272425;28;20475;-72
2021/08/10 09:56:55;;;;;;;1.27;0.80;;;;;;;;;;8274090;28;20045;-71
2021/08/10 10:01:04;;;;;;;1.55;0.90;;;;;;;;;;8273660;28;20403;-73
2021/08/10 10:05:09;;;;;;;4.63;1.20;;;;;;;;;;8272249;28;20494;-71
2021/08/10 10:09:16;;;;;;;;;;;;;;;;;;8274094;28;20375;-71
2021/08/10 10:13:23;;;;;;;1.83;0.90;;;;;;;;;;8257143;28;20256;-72
2021/08/10 10:17:33;;;;;;;3.92;0.88;;;;;;;;;;8279134;28;20363;-71
2021/08/10 10:21:53;;;;;;;1.10;0.80;;;;;;;;;;8289643;28;20351;-72
2021/08/10 10:26:02;;;;;;;2.80;0.95;;;;;;;;;;8274272;28;20497;-72
2021/08/10 10:30:08;;;;;;;3.42;1.08;;;;;;;;;;8291038;28;20386;-71
2021/08/10 10:34:15;;;;;;;1.70;0.85;;;;;;;;;;8288452;28;20471;-72
2021/08/10 10:38:23;;;;;;;1.20;0.80;;;;;;;;;;8286653;28;20361;-71
2021/08/10 10:42:29;;;;;;;2.40;1.02;;;;;;;;;;8288337;28;20478;-71
2021/08/10 10:46:43;;;;;;;2.58;1.10;;;;;;;;;;8274311;28;20432;-71
2021/08/10 10:51:21;;;;;;;2.47;1.15;;;;;;;;;;8274549;28;20452;-71
2021/08/10 10:55:37;;;;;;;2.45;1.00;;;;;;;;;;8272998;28;20036;-73
2021/08/10 10:59:49;;;;;;;2.40;1.27;;;;;;;;;;8289336;28;20484;-71
2021/08/10 11:04:04;;;;;;;2.35;1.20;;;;;;;;;;8288219;28;20405;-72
2021/08/10 11:08:37;;;;;;;1.38;0.88;;;;;;;;;;8290634;28;20617;-71
2021/08/10 11:12:47;;;;;;;2.63;1.25;;;;;;;;;;8288414;28;20482;-71
2021/08/10 11:17:12;;;;;;;1.63;0.93;;;;;;;;;;8287638;28;20052;-70
2021/08/10 11:21:17;;;;;;;1.40;0.98;;;;;;;;;;8290951;28;20375;-71
2021/08/10 11:25:25;;;;;;;2.30;1.13;;;;;;;;;;8289596;28;20075;-71
2021/08/10 11:29:43;;;;;;;2.92;1.50;;;;;;;;;;8289110;28;20036;-71
2021/08/10 11:33:49;;;;;;;2.20;1.20;;;;;;;;;;8254581;28;20374;-70
2021/08/10 11:38:11;;;;;;;4.65;1.40;;;;;;;;;;8291378;28;20332;-71
2021/08/10 11:42:20;;;;;;;5.13;1.17;;;;;;;;;;8289112;28;20479;-71
2021/08/10 11:46:31;;;;;;;4.22;1.30;;;;;;;;;;8271452;28;20447;-71
2021/08/10 11:50:36;;;;;;;2.50;1.38;;;;;;;;;;8289987;28;20045;-72
2021/08/10 11:54:59;;;;;;;3.13;1.27;;;;;;;;;;8291121;28;20052;-72
2021/08/10 11:59:10;;;;;;;2.53;1.25;;;;;;;;;;8271812;28;20344;-71
2021/08/10 12:03:23;;;;;;;5.03;1.33;;;;;;;;;;8289450;28;20355;-71
2021/08/10 12:07:29;;;;;;;2.25;1.30;;;;;;;;;;8294678;28;20048;-72
2021/08/10 12:11:34;;;;;;;2.05;1.30;;;;;;;;;;8297134;28;20332;-71
2021/08/10 12:15:45;;;;;;;2.92;1.58;;;;;;;;;;8292344;28;20364;-72
2021/08/10 12:19:51;;;;;;;4.72;1.50;;;;;;;;;;8277618;28;20584;-71
2021/08/10 12:23:56;;;;;;;2.58;1.55;;;;;;;;;;8293808;28;20044;-71
2021/08/10 12:28:11;;;;;;;2.78;1.60;;;;;;;;;;8293861;28;20462;-71
2021/08/10 12:32:32;;;;;;;2.85;1.45;;;;;;;;;;8295648;28;20345;-72
2021/08/10 12:36:52;;;;;;;5.22;1.23;;;;;;;;;;8295144;28;20370;-72
2021/08/10 12:40:57;;;;;;;1.75;0.95;;;;;;;;;;8293709;28;20390;-71
2021/08/10 12:45:03;;;;;;;6.25;1.60;;;;;;;;;;8292025;28;20353;-71
2021/08/10 12:49:17;;;;;;;2.83;1.27;;;;;;;;;;8294113;28;20463;-72
2021/08/10 12:53:28;;;;;;;2.33;1.15;;;;;;;;;;8292009;28;20464;-72
2021/08/10 12:57:34;;;;;;;1.83;1.08;;;;;;;;;;8289711;28;20405;-71
2021/08/10 13:01:44;;;;;;;4.07;1.20;;;;;;;;;;8294614;28;20348;-71
2021/08/10 13:05:51;;;;;;;2.05;1.27;;;;;;;;;;8278052;28;20759;-71
2021/08/10 13:10:02;;;;;;;1.52;0.98;;;;;;;;;;8276382;28;20053;-71
2021/08/10 13:14:10;;;;;;;2.97;1.00;;;;;;;;;;8259985;28;20368;-72
2021/08/10 13:18:34;;;;;;;1.88;1.10;;;;;;;;;;8293808;28;20368;-71
2021/08/10 13:22:43;;;;;;;1.83;1.10;;;;;;;;;;8292482;28;20344;-70
2021/08/10 13:26:55;;;;;;;3.42;1.45;;;;;;;;;;8291955;28;20395;-71
2021/08/10 13:31:18;;;;;;;2.97;1.60;;;;;;;;;;8292126;28;20365;-71
2021/08/10 13:35:23;;;;;;;3.05;1.30;;;;;;;;;;8275355;28;20415;-72
2021/08/10 13:39:29;;;;;;;2.75;1.67;;;;;;;;;;8291229;28;20402;-70
2021/08/10 13:43:34;;;;;;;3.65;1.20;;;;;;;;;;8292952;28;20358;-74
2021/08/10 13:47:39;;;;;;;2.03;1.30;;;;;;;;;;8292022;28;20367;-71
2021/08/10 13:51:45;;;;;;;2.55;1.00;;;;;;;;;;8292734;28;20374;-71
2021/08/10 13:55:50;;;;;;;2.92;1.05;;;;;;;;;;8291965;28;20483;-71
2021/08/10 13:59:56;;;;;;;1.92;1.10;;;;;;;;;;8290781;28;20483;-71
2021/08/10 14:04:01;;;;;;;1.60;0.98;;;;;;;;;;8290061;28;20371;-71
2021/08/10 14:08:07;;;;;;;3.20;1.10;;;;;;;;;;8290954;28;20364;-71
2021/08/10 14:12:13;;;;;;;1.63;1.00;;;;;;;;;;8291269;28;20374;-71
2021/08/10 14:16:21;;;;;;;2.10;1.02;;;;;;;;;;8288394;28;20379;-71
2021/08/10 14:20:24;;;;;;;1.65;1.13;;;;;;;;;;8284439;28;20358;-71
2021/08/10 14:24:28;;;;;;;2.90;1.05;;;;;;;;;;8271660;28;20065;-72
2021/08/10 14:28:33;;;;;;;1.77;1.05;;;;;;;;;;8272178;28;20355;-73
2021/08/10 14:32:39;;;;;;;3.40;1.30;;;;;;;;;;8290346;28;20057;-71
2021/08/10 14:36:43;;;;;;;2.72;1.08;;;;;;;;;;8290738;28;20045;-72
2021/08/10 14:40:47;;;;;;;1.40;1.10;;;;;;;;;;8289957;28;20063;-74
2021/08/10 14:44:52;;;;;;;2.28;1.20;;;;;;;;;;8291115;28;20475;-72
2021/08/10 14:48:57;;;;;;;2.92;0.98;;;;;;;;;;8272752;28;20359;-72
2021/08/10 14:53:03;;;;;;;3.35;1.50;;;;;;;;;;8289710;28;20498;-72
2021/08/10 14:57:08;;;;;;;2.03;1.10;;;;;;;;;;8287547;28;20471;-72
2021/08/10 15:01:13;;;;;;;6.00;1.83;;;;;;;;;;8288238;28;20487;-72
2021/08/10 15:05:19;;;;;;;1.85;1.20;;;;;;;;;;8270901;28;20475;-71
2021/08/10 15:09:25;;;;;;;6.40;1.95;;;;;;;;;;8289021;28;20296;-72
2021/08/10 15:13:30;;;;;;;2.92;1.27;;;;;;;;;;8271241;28;20345;-72
2021/08/10 15:17:35;;;;;;;3.40;1.55;;;;;;;;;;8271731;28;20490;-72
2021/08/10 15:21:39;;;;;;;3.17;1.50;;;;;;;;;;8272860;28;20463;-72
2021/08/10 15:25:44;;;;;;;2.75;1.30;;;;;;;;;;8269850;28;20383;-72
2021/08/10 15:29:48;;;;;;;2.83;1.33;;;;;;;;;;8272738;28;20486;-71
2021/08/10 15:33:52;;;;;;;4.32;1.27;;;;;;;;;;8271961;28;20045;-72
2021/08/10 15:37:58;;;;;;;2.47;1.30;;;;;;;;;;8275486;28;20463;-72
2021/08/10 15:42:02;;;;;;;5.88;1.30;;;;;;;;;;8277669;28;20045;-72
2021/08/10 15:46:06;;;;;;;2.00;1.30;;;;;;;;;;8294847;28;20470;-73
2021/08/10 15:50:12;;;;;;;5.43;1.63;;;;;;;;;;8261425;28;20344;-72
2021/08/10 15:54:16;;;;;;;2.63;1.55;;;;;;;;;;8262316;28;20613;-71
2021/08/10 15:58:21;;;;;;;2.35;1.42;;;;;;;;;;8294596;28;20345;-72
2021/08/10 16:02:25;;;;;;;2.88;1.60;;;;;;;;;;8294343;28;20520;-70
2021/08/10 16:06:31;;;;;;;3.47;1.02;;;;;;;;;;8294241;28;20467;-72
2021/08/10 16:10:36;;;;;;;2.78;1.30;;;;;;;;;;8296624;28;20387;-72
2021/08/10 16:14:40;;;;;;;12.30;2.30;;;;;;;;;;8295686;28;20510;-72
2021/08/10 16:18:44;;;;;;;2.90;1.15;;;;;;;;;;8294437;28;20443;-71
2021/08/10 16:22:49;;;;;;;2.65;1.20;;;;;;;;;;8261564;28;20510;-72
2021/08/10 16:26:53;;;;;;;3.13;1.65;;;;;;;;;;8277114;28;20495;-72
2021/08/10 16:30:57;;;;;;;3.60;1.48;;;;;;;;;;8276407;28;20363;-72
2021/08/10 16:35:01;;;;;;;5.53;1.90;;;;;;;;;;8292526;28;20474;-70
2021/08/10 16:39:04;;;;;;;5.25;1.50;;;;;;;;;;8293278;28;20066;-71
2021/08/10 16:43:10;;;;;;;3.92;1.90;;;;;;;;;;8265560;28;20348;-71
2021/08/10 16:47:17;;;;;;;4.32;1.80;;;;;;;;;;8260332;28;20426;-72
2021/08/10 16:51:22;;;;;;;5.15;1.60;;;;;;;;;;8244706;28;20052;-71
2021/08/10 16:55:27;;;;;;;6.93;2.45;;;;;;;;;;8261434;28;20063;-71
2021/08/10 16:59:32;;;;;;;6.65;2.42;;;;;;;;;;8261194;28;20607;-70
2021/08/10 17:03:37;;;;;;;4.65;1.65;;;;;;;;;;8244225;28;20056;-71
2021/08/10 17:07:43;;;;;;;3.35;1.90;;;;;;;;;;8243576;28;20072;-71
2021/08/10 17:11:49;;;;;;;6.38;2.30;;;;;;;;;;8260485;28;20099;-71
2021/08/10 17:15:54;;;;;;;9.75;2.20;;;;;;;;;;8242540;28;20360;-71
2021/08/10 17:19:59;;;;;;;8.13;2.15;;;;;;;;;;8260089;28;20452;-70
2021/08/10 17:24:06;;;;;;;8.43;2.88;;;;;;;;;;8259528;28;20387;-70
2021/08/10 17:28:12;;;;;;;9.90;3.23;;;;;;;;;;8260122;28;20391;-71
2021/08/10 17:32:17;;;;;;;6.10;2.63;;;;;;;;;;8259708;28;20479;-71
2021/08/10 17:36:22;;;;;;;8.13;2.53;;;;;;;;;;8259604;28;20384;-70
2021/08/10 17:40:31;;;;;;;8.10;3.67;;;;;;;;;;8260979;28;20486;-71
2021/08/10 17:44:37;;;;;;;26.13;11.75;;;;;;;;;;8258701;28;20476;-70
2021/08/10 17:48:43;;;;;;;25.77;9.50;;;;;;;;;;8259509;28;20498;-72
2021/08/10 17:52:48;;;;;;;18.77;6.80;;;;;;;;;;8258203;28;20491;-70
2021/08/10 17:56:54;;;;;;;27.33;10.10;;;;;;;;;;8260713;28;20333;-71
2021/08/10 18:00:59;;;;;;;11.32;3.25;;;;;;;;;;8258292;28;20364;-71
2021/08/10 18:05:05;;;;;;;3.42;2.33;;;;;;;;;;8258697;28;20444;-71
2021/08/10 18:09:11;;;;;;;4.80;2.20;;;;;;;;;;8258873;28;20483;-71
2021/08/10 18:13:16;;;;;;;5.63;1.95;;;;;;;;;;8258919;28;20487;-71
2021/08/10 18:17:22;;;;;;;7.30;3.10;;;;;;;;;;8259632;28;20480;-72
2021/08/10 18:21:27;;;;;;;8.57;1.80;;;;;;;;;;8258553;28;20498;-71
2021/08/10 18:25:34;;;;;;;5.57;1.95;;;;;;;;;;8258920;28;20045;-72
2021/08/10 18:29:39;;;;;;;4.65;2.20;;;;;;;;;;8259362;28;20475;-71
2021/08/10 18:33:44;;;;;;;8.50;2.40;;;;;;;;;;8258768;28;20449;-71
2021/08/10 18:37:50;;;;;;;7.30;2.38;;;;;;;;;;8256655;28;20037;-71
2021/08/10 18:41:56;;;;;;;5.60;2.45;;;;;;;;;;8257836;28;20063;-71
2021/08/10 18:46:02;;;;;;;6.57;2.42;;;;;;;;;;8256660;28;20463;-71
2021/08/10 18:50:08;;;;;;;3.83;1.90;;;;;;;;;;8256212;28;20471;-72
2021/08/10 18:54:13;;;;;;;3.33;1.50;;;;;;;;;;8257792;28;20349;-71
2021/08/10 18:58:18;;;;;;;4.53;1.98;;;;;;;;;;8258985;28;20641;-71
2021/08/10 19:02:23;;;;;;;8.25;1.80;;;;;;;;;;8257535;28;20468;-71
2021/08/10 19:06:28;;;;;;;3.90;2.00;;;;;;;;;;8272577;28;20361;-71
2021/08/10 19:10:33;;;;;;;4.55;2.42;;;;;;;;;;8255457;28;20352;-72
2021/08/10 19:14:41;;;;;;;6.38;1.95;;;;;;;;;;8271291;28;20060;-71
2021/08/10 19:18:47;;;;;;;7.90;2.22;;;;;;;;;;8256306;28;20044;-71
2021/08/10 19:22:52;;;;;;;3.75;1.95;;;;;;;;;;8257342;28;20494;-71
2021/08/10 19:26:57;;;;;;;46.17;18.65;;;;;;;;;;8257512;28;20468;-71
2021/08/10 19:31:03;;;;;;;9.52;3.22;;;;;;;;;;8254804;28;20376;-71
2021/08/10 19:35:08;;;;;;;8.13;3.20;;;;;;;;;;8257565;28;20068;-71
2021/08/10 19:39:13;;;;;;;3.78;2.42;;;;;;;;;;8256864;28;20468;-72
2021/08/10 19:43:21;;;;;;;8.05;3.80;;;;;;;;;;8257214;28;20492;-71
2021/08/10 19:47:26;;;;;;;9.68;3.20;;;;;;;;;;8240526;28;20371;-71
2021/08/10 19:51:34;;;;;;;9.02;3.05;;;;;;;;;;8256099;28;20367;-72
2021/08/10 19:55:40;;;;;;;5.68;3.03;;;;;;;;;;8256030;28;20479;-71
2021/08/10 19:59:48;;;;;;;6.30;2.60;;;;;;;;;;8238527;28;20355;-71
2021/08/10 20:03:53;;;;;;;4.30;2.45;;;;;;;;;;8257259;28;20098;-71
2021/08/10 20:07:58;;;;;;;6.93;2.60;;;;;;;;;;8238675;28;20045;-73
2021/08/10 20:12:09;;;;;;;4.07;2.28;;;;;;;;;;8256519;28;20483;-71
2021/08/10 20:16:15;;;;;;;18.55;6.82;;;;;;;;;;8271858;28;20057;-71
2021/08/10 20:20:21;;;;;;;10.07;4.63;;;;;;;;;;8257093;28;20475;-71
2021/08/10 20:24:26;;;;;;;8.38;3.72;;;;;;;;;;8259419;28;20364;-71
2021/08/10 20:28:32;;;;;;;8.80;2.53;;;;;;;;;;8244484;28;20045;-71
2021/08/10 20:32:37;;;;;;;13.20;2.30;;;;;;;;;;8262256;28;20330;-71
2021/08/10 20:36:44;;;;;;;6.97;2.03;;;;;;;;;;8261768;28;20485;-70
2021/08/10 20:40:51;;;;;;;4.90;2.13;;;;;;;;;;8260421;28;20067;-72
2021/08/10 20:44:56;;;;;;;4.95;2.10;;;;;;;;;;8261240;28;20483;-72
2021/08/10 20:49:01;;;;;;;5.82;2.63;;;;;;;;;;8263873;28;20063;-70
2021/08/10 20:53:06;;;;;;;8.25;2.20;;;;;;;;;;8261741;28;20045;-70
2021/08/10 20:57:11;;;;;;;5.60;2.67;;;;;;;;;;8261472;28;20092;-72
2021/08/10 21:01:16;;;;;;;2.95;1.98;;;;;;;;;;8260863;28;20052;-71
2021/08/10 21:05:22;;;;;;;6.43;2.55;;;;;;;;;;8263462;28;20060;-71
2021/08/10 21:09:27;;;;;;;5.40;2.53;;;;;;;;;;8259661;28;20064;-71
2021/08/10 21:13:33;;;;;;;7.07;1.88;;;;;;;;;;8260514;28;20464;-71
2021/08/10 21:17:38;;;;;;;4.15;2.50;;;;;;;;;;8260976;28;20506;-71
2021/08/10 21:21:46;;;;;;;7.30;2.38;;;;;;;;;;8260861;28;20375;-71
2021/08/10 21:25:51;;;;;;;5.05;2.08;;;;;;;;;;8252997;28;20467;-72
2021/08/10 21:29:56;;;;;;;6.47;2.70;;;;;;;;;;8227920;28;20464;-71
2021/08/10 21:34:01;;;;;;;3.67;2.10;;;;;;;;;;8226541;28;20049;-71
2021/08/10 21:38:06;;;;;;;4.82;2.38;;;;;;;;;;8242117;28;20376;-71
2021/08/10 21:42:12;;;;;;;6.93;2.45;;;;;;;;;;8228203;28;20072;-72
2021/08/10 21:46:17;;;;;;;10.43;2.40;;;;;;;;;;8228489;28;20503;-71
2021/08/10 21:50:22;;;;;;;4.72;2.45;;;;;;;;;;8227047;28;20476;-72
2021/08/10 21:54:27;;;;;;;4.38;2.63;;;;;;;;;;8227018;28;20041;-71
2021/08/10 21:58:32;;;;;;;5.10;2.45;;;;;;;;;;8229443;28;20457;-70
2021/08/10 22:02:38;;;;;;;5.80;2.47;;;;;;;;;;8227557;28;20480;-70
2021/08/10 22:06:43;;;;;;;3.28;2.45;;;;;;;;;;8226719;28;20367;-71
2021/08/10 22:10:48;;;;;;;5.85;2.60;;;;;;;;;;8225780;28;20421;-70
2021/08/10 22:14:53;;;;;;;5.13;2.33;;;;;;;;;;8225213;28;20033;-71
2021/08/10 22:18:58;;;;;;;4.03;2.22;;;;;;;;;;8225515;28;20069;-71
2021/08/10 22:23:05;;;;;;;4.70;2.58;;;;;;;;;;8225534;28;20361;-70
2021/08/10 22:27:09;;;;;;;11.52;2.60;;;;;;;;;;8227472;28;20475;-71
2021/08/10 22:31:14;;;;;;;7.30;2.70;;;;;;;;;;8208996;28;20384;-71
2021/08/10 22:35:20;;;;;;;7.07;2.97;;;;;;;;;;8227091;28;20471;-71
2021/08/10 22:39:26;;;;;;;5.65;2.78;;;;;;;;;;8225190;28;20460;-70
2021/08/10 22:43:31;;;;;;;6.35;3.13;;;;;;;;;;8224639;28;20384;-70
2021/08/10 22:47:36;;;;;;;4.93;2.83;;;;;;;;;;8207842;28;20069;-71
2021/08/10 22:51:42;;;;;;;3.95;2.30;;;;;;;;;;8206875;28;20477;-72
2021/08/10 22:55:47;;;;;;;5.65;2.85;;;;;;;;;;8223761;28;20368;-72
2021/08/10 22:59:52;;;;;;;4.45;2.80;;;;;;;;;;8227753;28;20468;-71
2021/08/10 23:03:58;;;;;;;8.30;2.90;;;;;;;;;;8208224;28;20464;-71
2021/08/10 23:08:04;;;;;;;7.57;2.92;;;;;;;;;;8224966;28;20396;-71
2021/08/10 23:12:10;;;;;;;7.20;2.97;;;;;;;;;;8207467;28;20483;-71
2021/08/10 23:16:15;;;;;;;9.05;3.35;;;;;;;;;;8223999;28;20376;-71
2021/08/10 23:20:21;;;;;;;10.45;3.25;;;;;;;;;;8207369;28;20356;-71
2021/08/10 23:24:26;;;;;;;7.68;3.10;;;;;;;;;;8225034;28;20481;-70
2021/08/10 23:28:32;;;;;;;5.47;3.60;;;;;;;;;;8225810;28;20396;-71
2021/08/10 23:32:38;;;;;;;7.53;3.17;;;;;;;;;;8224989;28;20507;-70
2021/08/10 23:36:43;;;;;;;6.55;3.00;;;;;;;;;;8222530;28;20392;-71
2021/08/10 23:40:49;;;;;;;5.57;2.58;;;;;;;;;;8222986;28;20467;-70
2021/08/10 23:44:54;;;;;;;7.28;3.15;;;;;;;;;;8224382;28;20084;-70
2021/08/10 23:48:59;;;;;;;9.20;3.33;;;;;;;;;;8225138;28;20458;-71
2021/08/10 23:53:05;;;;;;;4.13;2.80;;;;;;;;;;8207335;28;20038;-71
2021/08/10 23:57:10;;;;;;;4.53;2.63;;;;;;;;;;8207765;28;20072;-71
